sensor_id;sensor_type;location;lat;lon;timestamp;pressure;altitude;pressure_sealevel;temperature;humidity
21111;BME280;10713;51.912;4.494;2023-02-28T00:02:19;103147.03;;;4.25;100.00
21111;BME280;10713;51.912;4.494;2023-02-28T00:04:45;103133.00;;;4.23;100.00
21111;BME280;10713;51.912;4.494;2023-02-28T00:07:11;103130.41;;;4.23;100.00
21111;BME280;10713;51.912;4.494;2023-02-28T00:09:36;103143.56;;;4.26;100.00
21111;BME280;10713;51.912;4.494;2023-02-28T00:12:02;103129.66;;;4.27;100.00
21111;BME280;10713;51.912;4.494;2023-02-28T00:14:35;103123.50;;;4.25;100.00
21111;BME280;10713;51.912;4.494;2023-02-28T00:17:00;103120.00;;;4.25;100.00
21111;BME280;10713;51.912;4.494;2023-02-28T00:19:26;103128.69;;;4.24;100.00
21111;BME280;10713;51.912;4.494;2023-02-28T00:21:51;103141.78;;;4.25;100.00
21111;BME280;10713;51.912;4.494;2023-02-28T00:24:16;103141.66;;;4.19;100.00
21111;BME280;10713;51.912;4.494;2023-02-28T00:26:42;103140.78;;;4.20;100.00
21111;BME280;10713;51.912;4.494;2023-02-28T00:29:07;103144.34;;;4.22;100.00
21111;BME280;10713;51.912;4.494;2023-02-28T00:31:32;103149.56;;;4.22;100.00
21111;BME280;10713;51.912;4.494;2023-02-28T00:33:58;103158.34;;;4.24;100.00
21111;BME280;10713;51.912;4.494;2023-02-28T00:36:23;103163.75;;;4.32;100.00
21111;BME280;10713;51.912;4.494;2023-02-28T00:38:48;103166.44;;;4.35;100.00
21111;BME280;10713;51.912;4.494;2023-02-28T00:41:14;103156.00;;;4.37;100.00
21111;BME280;10713;51.912;4.494;2023-02-28T00:43:39;103157.88;;;4.42;100.00
21111;BME280;10713;51.912;4.494;2023-02-28T00:46:05;103148.44;;;4.49;100.00
21111;BME280;10713;51.912;4.494;2023-02-28T00:48:31;103157.19;;;4.49;100.00
21111;BME280;10713;51.912;4.494;2023-02-28T00:50:57;103150.38;;;4.58;100.00
21111;BME280;10713;51.912;4.494;2023-02-28T00:53:22;103146.19;;;4.64;100.00
21111;BME280;10713;51.912;4.494;2023-02-28T00:55:49;103147.16;;;4.69;100.00
21111;BME280;10713;51.912;4.494;2023-02-28T00:58:14;103140.88;;;4.61;100.00
21111;BME280;10713;51.912;4.494;2023-02-28T01:00:39;103138.25;;;4.61;100.00
21111;BME280;10713;51.912;4.494;2023-02-28T01:03:05;103141.88;;;4.68;100.00
21111;BME280;10713;51.912;4.494;2023-02-28T01:05:30;103141.09;;;4.72;100.00
21111;BME280;10713;51.912;4.494;2023-02-28T01:07:56;103148.19;;;4.78;100.00
21111;BME280;10713;51.912;4.494;2023-02-28T01:10:21;103147.31;;;4.77;100.00
21111;BME280;10713;51.912;4.494;2023-02-28T01:12:46;103150.03;;;4.82;100.00
21111;BME280;10713;51.912;4.494;2023-02-28T01:15:12;103150.06;;;4.83;100.00
21111;BME280;10713;51.912;4.494;2023-02-28T01:17:37;103158.03;;;4.88;100.00
21111;BME280;10713;51.912;4.494;2023-02-28T01:20:03;103152.09;;;4.96;100.00
21111;BME280;10713;51.912;4.494;2023-02-28T01:22:29;103153.03;;;4.99;100.00
21111;BME280;10713;51.912;4.494;2023-02-28T01:24:54;103151.28;;;4.99;100.00
21111;BME280;10713;51.912;4.494;2023-02-28T01:27:19;103155.59;;;4.97;100.00
21111;BME280;10713;51.912;4.494;2023-02-28T01:29:45;103154.81;;;5.01;100.00
21111;BME280;10713;51.912;4.494;2023-02-28T01:32:10;103139.16;;;5.04;100.00
21111;BME280;10713;51.912;4.494;2023-02-28T01:34:36;103150.47;;;5.03;100.00
21111;BME280;10713;51.912;4.494;2023-02-28T01:37:01;103138.22;;;5.01;100.00
21111;BME280;10713;51.912;4.494;2023-02-28T01:39:29;103146.16;;;5.04;100.00
21111;BME280;10713;51.912;4.494;2023-02-28T01:41:54;103138.38;;;5.08;100.00
21111;BME280;10713;51.912;4.494;2023-02-28T01:44:58;103143.66;;;5.10;100.00
21111;BME280;10713;51.912;4.494;2023-02-28T01:47:28;103150.66;;;5.11;100.00
21111;BME280;10713;51.912;4.494;2023-02-28T01:49:54;103143.72;;;5.13;100.00
21111;BME280;10713;51.912;4.494;2023-02-28T01:52:20;103135.06;;;5.17;100.00
21111;BME280;10713;51.912;4.494;2023-02-28T01:54:51;103129.03;;;5.21;100.00
21111;BME280;10713;51.912;4.494;2023-02-28T01:57:21;103127.19;;;5.17;100.00
21111;BME280;10713;51.912;4.494;2023-02-28T01:59:52;103126.31;;;5.16;100.00
21111;BME280;10713;51.912;4.494;2023-02-28T02:02:21;103124.75;;;5.25;100.00
21111;BME280;10713;51.912;4.494;2023-02-28T02:04:55;103123.88;;;5.24;100.00
21111;BME280;10713;51.912;4.494;2023-02-28T02:07:22;103115.13;;;5.25;100.00
21111;BME280;10713;51.912;4.494;2023-02-28T02:09:48;103112.56;;;5.27;100.00
21111;BME280;10713;51.912;4.494;2023-02-28T02:12:37;103109.19;;;5.32;100.00
21111;BME280;10713;51.912;4.494;2023-02-28T02:15:16;103103.03;;;5.30;100.00
21111;BME280;10713;51.912;4.494;2023-02-28T02:17:48;103102.22;;;5.34;100.00
21111;BME280;10713;51.912;4.494;2023-02-28T02:23:48;103100.56;;;5.38;100.00
21111;BME280;10713;51.912;4.494;2023-02-28T02:35:00;103095.22;;;5.35;100.00
21111;BME280;10713;51.912;4.494;2023-02-28T02:40:19;103100.47;;;5.33;100.00
21111;BME280;10713;51.912;4.494;2023-02-28T02:45:22;103104.72;;;5.27;100.00
21111;BME280;10713;51.912;4.494;2023-02-28T02:47:49;103098.59;;;5.28;100.00
21111;BME280;10713;51.912;4.494;2023-02-28T02:50:21;103098.66;;;5.31;100.00
21111;BME280;10713;51.912;4.494;2023-02-28T02:52:52;103093.47;;;5.32;100.00
21111;BME280;10713;51.912;4.494;2023-02-28T02:55:20;103089.06;;;5.31;100.00
21111;BME280;10713;51.912;4.494;2023-02-28T02:58:07;103094.41;;;5.37;100.00
21111;BME280;10713;51.912;4.494;2023-02-28T03:00:37;103088.34;;;5.40;100.00
21111;BME280;10713;51.912;4.494;2023-02-28T03:03:04;103098.03;;;5.44;100.00
21111;BME280;10713;51.912;4.494;2023-02-28T03:05:35;103098.97;;;5.48;100.00
21111;BME280;10713;51.912;4.494;2023-02-28T03:08:04;103100.59;;;5.41;100.00
21111;BME280;10713;51.912;4.494;2023-02-28T03:10:35;103098.72;;;5.34;100.00
21111;BME280;10713;51.912;4.494;2023-02-28T03:21:12;103112.75;;;5.37;100.00
21111;BME280;10713;51.912;4.494;2023-02-28T03:23:47;103111.72;;;5.29;100.00
21111;BME280;10713;51.912;4.494;2023-02-28T03:26:26;103116.88;;;5.26;100.00
21111;BME280;10713;51.912;4.494;2023-02-28T03:29:00;103115.13;;;5.24;100.00
21111;BME280;10713;51.912;4.494;2023-02-28T03:31:32;103100.97;;;5.14;100.00
21111;BME280;10713;51.912;4.494;2023-02-28T03:34:24;103120.25;;;5.19;100.00
21111;BME280;10713;51.912;4.494;2023-02-28T03:36:55;103110.50;;;5.10;100.00
21111;BME280;10713;51.912;4.494;2023-02-28T03:39:28;103119.34;;;5.15;100.00
21111;BME280;10713;51.912;4.494;2023-02-28T03:42:02;103117.47;;;5.11;100.00
21111;BME280;10713;51.912;4.494;2023-02-28T03:44:32;103116.66;;;5.12;100.00
21111;BME280;10713;51.912;4.494;2023-02-28T03:47:04;103113.94;;;5.08;100.00
21111;BME280;10713;51.912;4.494;2023-02-28T03:49:53;103112.06;;;5.02;100.00
21111;BME280;10713;51.912;4.494;2023-02-28T03:52:26;103118.13;;;4.98;100.00
21111;BME280;10713;51.912;4.494;2023-02-28T03:54:55;103121.63;;;5.00;100.00
21111;BME280;10713;51.912;4.494;2023-02-28T03:57:35;103114.63;;;4.99;100.00
21111;BME280;10713;51.912;4.494;2023-02-28T04:00:13;103112.88;;;5.00;100.00
21111;BME280;10713;51.912;4.494;2023-02-28T04:02:39;103101.44;;;4.94;100.00
21111;BME280;10713;51.912;4.494;2023-02-28T04:05:06;103106.72;;;4.97;100.00
21111;BME280;10713;51.912;4.494;2023-02-28T04:07:31;103100.66;;;4.99;100.00
21111;BME280;10713;51.912;4.494;2023-02-28T04:09:57;103104.06;;;4.94;100.00
21111;BME280;10713;51.912;4.494;2023-02-28T04:12:23;103103.06;;;4.88;100.00
21111;BME280;10713;51.912;4.494;2023-02-28T04:14:49;103112.59;;;4.84;100.00
21111;BME280;10713;51.912;4.494;2023-02-28T04:17:15;103103.00;;;4.86;100.00
21111;BME280;10713;51.912;4.494;2023-02-28T04:19:41;103105.75;;;4.91;100.00
21111;BME280;10713;51.912;4.494;2023-02-28T04:22:08;103109.28;;;4.93;100.00
21111;BME280;10713;51.912;4.494;2023-02-28T04:24:33;103104.88;;;4.92;100.00
21111;BME280;10713;51.912;4.494;2023-02-28T04:26:59;103106.66;;;4.93;100.00
21111;BME280;10713;51.912;4.494;2023-02-28T04:29:31;103111.91;;;4.94;100.00
21111;BME280;10713;51.912;4.494;2023-02-28T04:32:00;103106.59;;;4.90;100.00
21111;BME280;10713;51.912;4.494;2023-02-28T04:34:27;103109.22;;;4.91;100.00
21111;BME280;10713;51.912;4.494;2023-02-28T04:36:54;103104.94;;;4.95;100.00
21111;BME280;10713;51.912;4.494;2023-02-28T04:39:21;103112.06;;;5.02;100.00
21111;BME280;10713;51.912;4.494;2023-02-28T04:41:46;103109.47;;;5.02;100.00
21111;BME280;10713;51.912;4.494;2023-02-28T04:44:13;103114.66;;;5.01;100.00
21111;BME280;10713;51.912;4.494;2023-02-28T04:46:38;103113.69;;;4.95;100.00
21111;BME280;10713;51.912;4.494;2023-02-28T04:49:03;103117.25;;;4.99;100.00
21111;BME280;10713;51.912;4.494;2023-02-28T04:51:29;103119.03;;;5.02;100.00
21111;BME280;10713;51.912;4.494;2023-02-28T04:53:55;103126.03;;;5.03;100.00
21111;BME280;10713;51.912;4.494;2023-02-28T04:56:20;103122.50;;;5.01;100.00
21111;BME280;10713;51.912;4.494;2023-02-28T04:58:47;103128.66;;;5.03;100.00
21111;BME280;10713;51.912;4.494;2023-02-28T05:01:20;103129.53;;;5.02;100.00
21111;BME280;10713;51.912;4.494;2023-02-28T05:03:46;103130.28;;;4.96;100.00
21111;BME280;10713;51.912;4.494;2023-02-28T05:06:12;103128.44;;;4.92;100.00
21111;BME280;10713;51.912;4.494;2023-02-28T05:08:38;103133.66;;;4.90;100.00
21111;BME280;10713;51.912;4.494;2023-02-28T05:11:07;103128.28;;;4.84;100.00
21111;BME280;10713;51.912;4.494;2023-02-28T05:13:36;103135.03;;;4.73;100.00
21111;BME280;10713;51.912;4.494;2023-02-28T05:16:01;103124.44;;;4.67;100.00
21111;BME280;10713;51.912;4.494;2023-02-28T05:18:26;103125.31;;;4.69;100.00
21111;BME280;10713;51.912;4.494;2023-02-28T05:20:52;103131.47;;;4.69;100.00
21111;BME280;10713;51.912;4.494;2023-02-28T05:23:17;103128.75;;;4.65;100.00
21111;BME280;10713;51.912;4.494;2023-02-28T05:25:44;103118.56;;;4.79;100.00
21111;BME280;10713;51.912;4.494;2023-02-28T05:28:10;103122.09;;;4.81;100.00
21111;BME280;10713;51.912;4.494;2023-02-28T05:30:35;103132.72;;;4.87;100.00
21111;BME280;10713;51.912;4.494;2023-02-28T05:33:00;103134.56;;;4.92;100.00
21111;BME280;10713;51.912;4.494;2023-02-28T05:35:26;103127.63;;;4.94;100.00
21111;BME280;10713;51.912;4.494;2023-02-28T05:37:51;103120.75;;;5.00;100.00
21111;BME280;10713;51.912;4.494;2023-02-28T05:40:17;103120.00;;;5.05;100.00
21111;BME280;10713;51.912;4.494;2023-02-28T05:42:44;103122.44;;;4.97;100.00
21111;BME280;10713;51.912;4.494;2023-02-28T05:45:10;103137.94;;;4.87;100.00
21111;BME280;10713;51.912;4.494;2023-02-28T05:47:35;103132.56;;;4.81;100.00
21111;BME280;10713;51.912;4.494;2023-02-28T05:50:01;103134.28;;;4.80;100.00
21111;BME280;10713;51.912;4.494;2023-02-28T05:52:28;103132.38;;;4.71;100.00
21111;BME280;10713;51.912;4.494;2023-02-28T05:54:55;103124.75;;;4.41;100.00
21111;BME280;10713;51.912;4.494;2023-02-28T05:57:20;103129.59;;;4.26;100.00
21111;BME280;10713;51.912;4.494;2023-02-28T05:59:45;103131.97;;;4.15;100.00
21111;BME280;10713;51.912;4.494;2023-02-28T06:02:13;103132.72;;;4.10;100.00
21111;BME280;10713;51.912;4.494;2023-02-28T06:04:38;103128.16;;;4.01;100.00
21111;BME280;10713;51.912;4.494;2023-02-28T06:07:06;103131.50;;;3.95;100.00
21111;BME280;10713;51.912;4.494;2023-02-28T06:09:31;103135.91;;;3.98;100.00
21111;BME280;10713;51.912;4.494;2023-02-28T06:12:01;103129.69;;;3.94;100.00
21111;BME280;10713;51.912;4.494;2023-02-28T06:14:29;103126.56;;;3.73;100.00
21111;BME280;10713;51.912;4.494;2023-02-28T06:16:56;103133.41;;;3.68;100.00
21111;BME280;10713;51.912;4.494;2023-02-28T06:19:22;103130.41;;;3.54;100.00
21111;BME280;10713;51.912;4.494;2023-02-28T06:21:51;103128.44;;;3.45;100.00
21111;BME280;10713;51.912;4.494;2023-02-28T06:24:18;103134.56;;;3.46;100.00
21111;BME280;10713;51.912;4.494;2023-02-28T06:26:44;103126.69;;;3.44;100.00
21111;BME280;10713;51.912;4.494;2023-02-28T06:29:10;103119.81;;;3.48;100.00
21111;BME280;10713;51.912;4.494;2023-02-28T06:31:35;103123.38;;;3.50;100.00
21111;BME280;10713;51.912;4.494;2023-02-28T06:34:00;103131.84;;;3.43;100.00
21111;BME280;10713;51.912;4.494;2023-02-28T06:36:26;103139.44;;;3.33;100.00
21111;BME280;10713;51.912;4.494;2023-02-28T06:38:51;103138.41;;;3.27;100.00
21111;BME280;10713;51.912;4.494;2023-02-28T06:41:21;103137.53;;;3.26;100.00
21111;BME280;10713;51.912;4.494;2023-02-28T06:43:46;103136.53;;;3.23;100.00
21111;BME280;10713;51.912;4.494;2023-02-28T06:46:13;103136.63;;;3.26;100.00
21111;BME280;10713;51.912;4.494;2023-02-28T06:48:40;103129.41;;;3.15;100.00
21111;BME280;10713;51.912;4.494;2023-02-28T06:51:09;103132.75;;;3.11;100.00
21111;BME280;10713;51.912;4.494;2023-02-28T06:53:35;103132.91;;;3.17;100.00
21111;BME280;10713;51.912;4.494;2023-02-28T06:56:08;103138.09;;;3.16;100.00
21111;BME280;10713;51.912;4.494;2023-02-28T06:58:34;103144.34;;;3.21;100.00
21111;BME280;10713;51.912;4.494;2023-02-28T07:01:00;103160.56;;;3.11;100.00
21111;BME280;10713;51.912;4.494;2023-02-28T07:03:25;103157.78;;;3.05;100.00
21111;BME280;10713;51.912;4.494;2023-02-28T07:05:51;103168.78;;;2.94;100.00
21111;BME280;10713;51.912;4.494;2023-02-28T07:08:16;103177.19;;;2.84;100.00
21111;BME280;10713;51.912;4.494;2023-02-28T07:10:42;103180.03;;;2.63;100.00
21111;BME280;10713;51.912;4.494;2023-02-28T07:13:08;103180.63;;;2.55;100.00
21111;BME280;10713;51.912;4.494;2023-02-28T07:15:34;103207.25;;;2.44;100.00
21111;BME280;10713;51.912;4.494;2023-02-28T07:18:00;103196.38;;;2.31;100.00
21111;BME280;10713;51.912;4.494;2023-02-28T07:20:26;103198.69;;;2.21;100.00
21111;BME280;10713;51.912;4.494;2023-02-28T07:22:51;103190.66;;;2.15;100.00
21111;BME280;10713;51.912;4.494;2023-02-28T07:25:28;103181.06;;;2.14;100.00
21111;BME280;10713;51.912;4.494;2023-02-28T07:27:54;103191.66;;;2.19;100.00
21111;BME280;10713;51.912;4.494;2023-02-28T07:30:20;103189.72;;;2.13;100.00
21111;BME280;10713;51.912;4.494;2023-02-28T07:32:46;103207.78;;;2.09;100.00
21111;BME280;10713;51.912;4.494;2023-02-28T07:35:12;103200.81;;;2.08;100.00
21111;BME280;10713;51.912;4.494;2023-02-28T07:37:37;103198.03;;;2.01;100.00
21111;BME280;10713;51.912;4.494;2023-02-28T07:40:05;103200.63;;;2.01;100.00
21111;BME280;10713;51.912;4.494;2023-02-28T07:42:36;103213.69;;;2.03;100.00
21111;BME280;10713;51.912;4.494;2023-02-28T07:45:01;103210.28;;;2.04;100.00
21111;BME280;10713;51.912;4.494;2023-02-28T07:47:29;103212.00;;;2.03;100.00
21111;BME280;10713;51.912;4.494;2023-02-28T07:49:55;103211.06;;;2.03;100.00
21111;BME280;10713;51.912;4.494;2023-02-28T07:52:20;103205.16;;;2.07;100.00
21111;BME280;10713;51.912;4.494;2023-02-28T07:54:46;103215.78;;;2.13;100.00
21111;BME280;10713;51.912;4.494;2023-02-28T07:57:11;103216.84;;;2.20;100.00
21111;BME280;10713;51.912;4.494;2023-02-28T07:59:36;103214.31;;;2.21;100.00
21111;BME280;10713;51.912;4.494;2023-02-28T08:02:02;103206.34;;;2.17;100.00
21111;BME280;10713;51.912;4.494;2023-02-28T08:04:27;103216.16;;;2.24;100.00
21111;BME280;10713;51.912;4.494;2023-02-28T08:06:54;103207.94;;;2.39;100.00
21111;BME280;10713;51.912;4.494;2023-02-28T08:09:21;103211.34;;;2.63;100.00
21111;BME280;10713;51.912;4.494;2023-02-28T08:11:46;103204.06;;;2.82;100.00
21111;BME280;10713;51.912;4.494;2023-02-28T08:14:12;103208.25;;;3.05;100.00
21111;BME280;10713;51.912;4.494;2023-02-28T08:16:37;103221.16;;;3.29;100.00
21111;BME280;10713;51.912;4.494;2023-02-28T08:19:03;103211.97;;;3.44;100.00
21111;BME280;10713;51.912;4.494;2023-02-28T08:21:29;103199.28;;;3.57;100.00
21111;BME280;10713;51.912;4.494;2023-02-28T08:23:54;103204.16;;;3.77;100.00
21111;BME280;10713;51.912;4.494;2023-02-28T08:26:22;103201.06;;;3.92;100.00
21111;BME280;10713;51.912;4.494;2023-02-28T08:28:47;103195.03;;;3.94;100.00
21111;BME280;10713;51.912;4.494;2023-02-28T08:31:14;103200.47;;;4.02;100.00
21111;BME280;10713;51.912;4.494;2023-02-28T08:33:40;103200.69;;;4.10;100.00
21111;BME280;10713;51.912;4.494;2023-02-28T08:36:07;103203.59;;;4.22;100.00
21111;BME280;10713;51.912;4.494;2023-02-28T08:38:35;103187.25;;;4.31;100.00
21111;BME280;10713;51.912;4.494;2023-02-28T08:41:04;103201.38;;;4.39;100.00
21111;BME280;10713;51.912;4.494;2023-02-28T08:43:33;103194.22;;;4.32;100.00
21111;BME280;10713;51.912;4.494;2023-02-28T08:45:58;103196.97;;;4.38;100.00
21111;BME280;10713;51.912;4.494;2023-02-28T08:48:25;103203.84;;;4.33;100.00
21111;BME280;10713;51.912;4.494;2023-02-28T08:51:07;103187.44;;;4.40;100.00
21111;BME280;10713;51.912;4.494;2023-02-28T08:53:35;103185.91;;;4.48;100.00
21111;BME280;10713;51.912;4.494;2023-02-28T08:56:03;103186.84;;;4.50;100.00
21111;BME280;10713;51.912;4.494;2023-02-28T08:58:29;103180.72;;;4.49;100.00
21111;BME280;10713;51.912;4.494;2023-02-28T09:00:54;103190.31;;;4.50;100.00
21111;BME280;10713;51.912;4.494;2023-02-28T09:03:21;103205.00;;;4.44;100.00
21111;BME280;10713;51.912;4.494;2023-02-28T09:05:57;103196.75;;;4.27;100.00
21111;BME280;10713;51.912;4.494;2023-02-28T09:08:25;103194.81;;;4.20;100.00
21111;BME280;10713;51.912;4.494;2023-02-28T09:10:50;103190.06;;;4.03;100.00
21111;BME280;10713;51.912;4.494;2023-02-28T09:13:17;103194.09;;;3.91;100.00
21111;BME280;10713;51.912;4.494;2023-02-28T09:15:42;103197.56;;;3.90;100.00
21111;BME280;10713;51.912;4.494;2023-02-28T09:18:08;103200.00;;;3.83;100.00
21111;BME280;10713;51.912;4.494;2023-02-28T09:20:33;103196.56;;;3.86;100.00
21111;BME280;10713;51.912;4.494;2023-02-28T09:22:59;103198.63;;;3.98;100.00
21111;BME280;10713;51.912;4.494;2023-02-28T09:25:24;103205.31;;;4.21;100.00
21111;BME280;10713;51.912;4.494;2023-02-28T09:27:50;103211.44;;;4.22;100.00
21111;BME280;10713;51.912;4.494;2023-02-28T09:30:15;103208.66;;;4.16;100.00
21111;BME280;10713;51.912;4.494;2023-02-28T09:32:41;103200.69;;;4.11;100.00
21111;BME280;10713;51.912;4.494;2023-02-28T09:35:07;103203.31;;;4.11;100.00
21111;BME280;10713;51.912;4.494;2023-02-28T09:37:38;103204.09;;;4.07;100.00
21111;BME280;10713;51.912;4.494;2023-02-28T09:40:03;103211.13;;;4.10;100.00
21111;BME280;10713;51.912;4.494;2023-02-28T09:42:32;103209.25;;;4.05;100.00
21111;BME280;10713;51.912;4.494;2023-02-28T09:45:00;103212.50;;;3.95;100.00
21111;BME280;10713;51.912;4.494;2023-02-28T09:47:33;103215.13;;;3.95;100.00
21111;BME280;10713;51.912;4.494;2023-02-28T09:50:12;103216.47;;;3.81;100.00
21111;BME280;10713;51.912;4.494;2023-02-28T09:52:42;103226.84;;;3.78;100.00
21111;BME280;10713;51.912;4.494;2023-02-28T09:55:20;103219.75;;;3.74;100.00
21111;BME280;10713;51.912;4.494;2023-02-28T09:57:49;103223.09;;;3.68;100.00
21111;BME280;10713;51.912;4.494;2023-02-28T10:00:22;103224.69;;;3.63;100.00
21111;BME280;10713;51.912;4.494;2023-02-28T10:03:06;103229.19;;;3.69;100.00
21111;BME280;10713;51.912;4.494;2023-02-28T10:05:41;103215.94;;;3.61;100.00
21111;BME280;10713;51.912;4.494;2023-02-28T10:08:14;103214.44;;;3.69;100.00
21111;BME280;10713;51.912;4.494;2023-02-28T10:10:47;103212.41;;;3.60;100.00
21111;BME280;10713;51.912;4.494;2023-02-28T10:16:15;103219.53;;;3.66;100.00
21111;BME280;10713;51.912;4.494;2023-02-28T10:18:59;103214.16;;;3.60;100.00
21111;BME280;10713;51.912;4.494;2023-02-28T10:24:26;103214.06;;;3.55;100.00
21111;BME280;10713;51.912;4.494;2023-02-28T10:26:48;103215.34;;;3.71;100.00
21111;BME280;10713;51.912;4.494;2023-02-28T10:29:14;103205.75;;;3.70;100.00
21111;BME280;10713;51.912;4.494;2023-02-28T10:31:40;103203.38;;;3.79;100.00
21111;BME280;10713;51.912;4.494;2023-02-28T10:34:06;103197.72;;;3.96;100.00
21111;BME280;10713;51.912;4.494;2023-02-28T10:36:32;103198.53;;;3.95;100.00
21111;BME280;10713;51.912;4.494;2023-02-28T10:38:57;103196.28;;;4.09;100.00
21111;BME280;10713;51.912;4.494;2023-02-28T10:41:30;103197.91;;;4.40;100.00
21111;BME280;10713;51.912;4.494;2023-02-28T10:44:15;103179.78;;;4.47;100.00
21111;BME280;10713;51.912;4.494;2023-02-28T10:46:43;103177.66;;;4.69;100.00
21111;BME280;10713;51.912;4.494;2023-02-28T10:49:20;103177.41;;;5.40;100.00
21111;BME280;10713;51.912;4.494;2023-02-28T10:51:47;103182.41;;;5.73;100.00
21111;BME280;10713;51.912;4.494;2023-02-28T10:54:28;103176.09;;;6.11;100.00
21111;BME280;10713;51.912;4.494;2023-02-28T10:57:15;103163.47;;;6.41;100.00
21111;BME280;10713;51.912;4.494;2023-02-28T10:59:41;103163.28;;;6.90;100.00
21111;BME280;10713;51.912;4.494;2023-02-28T11:02:33;103152.25;;;7.18;100.00
21111;BME280;10713;51.912;4.494;2023-02-28T11:04:59;103162.88;;;7.29;100.00
21111;BME280;10713;51.912;4.494;2023-02-28T11:07:25;103160.22;;;7.26;100.00
21111;BME280;10713;51.912;4.494;2023-02-28T11:09:56;103136.25;;;6.98;100.00
21111;BME280;10713;51.912;4.494;2023-02-28T11:12:23;103142.03;;;6.71;100.00
21111;BME280;10713;51.912;4.494;2023-02-28T11:15:06;103143.66;;;6.62;100.00
21111;BME280;10713;51.912;4.494;2023-02-28T11:17:42;103131.56;;;6.73;100.00
21111;BME280;10713;51.912;4.494;2023-02-28T11:20:19;103134.19;;;6.74;100.00
21111;BME280;10713;51.912;4.494;2023-02-28T11:22:47;103130.72;;;6.75;100.00
21111;BME280;10713;51.912;4.494;2023-02-28T11:25:27;103132.44;;;6.73;100.00
21111;BME280;10713;51.912;4.494;2023-02-28T11:27:57;103147.16;;;6.62;100.00
21111;BME280;10713;51.912;4.494;2023-02-28T11:32:48;103120.03;;;6.62;100.00
21111;BME280;10713;51.912;4.494;2023-02-28T11:35:17;103121.78;;;6.63;100.00
21111;BME280;10713;51.912;4.494;2023-02-28T11:37:48;103123.50;;;6.59;99.13
21111;BME280;10713;51.912;4.494;2023-02-28T11:40:19;103108.72;;;6.69;99.56
21111;BME280;10713;51.912;4.494;2023-02-28T11:43:10;103119.22;;;6.67;79.19
21111;BME280;10713;51.912;4.494;2023-02-28T11:48:32;103113.97;;;6.69;80.42
21111;BME280;10713;51.912;4.494;2023-02-28T11:51:21;103101.63;;;6.59;70.73
21111;BME280;10713;51.912;4.494;2023-02-28T11:54:20;103109.47;;;6.56;69.31
21111;BME280;10713;51.912;4.494;2023-02-28T12:00:14;103108.19;;;6.27;67.99
21111;BME280;10713;51.912;4.494;2023-02-28T12:05:46;103100.31;;;6.27;66.16
21111;BME280;10713;51.912;4.494;2023-02-28T12:08:33;103101.19;;;6.29;65.92
21111;BME280;10713;51.912;4.494;2023-02-28T12:11:23;103086.28;;;6.25;62.92
21111;BME280;10713;51.912;4.494;2023-02-28T12:22:34;103088.72;;;6.13;60.30
21111;BME280;10713;51.912;4.494;2023-02-28T12:27:21;103083.97;;;5.92;58.41
21111;BME280;10713;51.912;4.494;2023-02-28T12:29:58;103093.59;;;5.92;58.19
21111;BME280;10713;51.912;4.494;2023-02-28T12:32:34;103077.06;;;5.94;58.41
21111;BME280;10713;51.912;4.494;2023-02-28T12:35:12;103093.09;;;6.13;57.68
21111;BME280;10713;51.912;4.494;2023-02-28T12:38:12;103075.75;;;6.22;57.81
21111;BME280;10713;51.912;4.494;2023-02-28T12:40:50;103067.72;;;6.12;57.11
21111;BME280;10713;51.912;4.494;2023-02-28T12:43:20;103082.66;;;6.16;56.48
21111;BME280;10713;51.912;4.494;2023-02-28T12:45:53;103075.59;;;6.12;56.46
21111;BME280;10713;51.912;4.494;2023-02-28T12:48:40;103071.38;;;6.23;56.94
21111;BME280;10713;51.912;4.494;2023-02-28T12:51:08;103073.84;;;6.12;56.22
21111;BME280;10713;51.912;4.494;2023-02-28T12:54:02;103067.53;;;5.99;54.70
21111;BME280;10713;51.912;4.494;2023-02-28T12:56:53;103061.50;;;6.05;55.36
21111;BME280;10713;51.912;4.494;2023-02-28T12:59:23;103071.78;;;5.93;54.86
21111;BME280;10713;51.912;4.494;2023-02-28T13:02:01;103081.34;;;5.91;53.54
21111;BME280;10713;51.912;4.494;2023-02-28T13:07:10;103055.44;;;6.09;53.89
21111;BME280;10713;51.912;4.494;2023-02-28T13:09:52;103056.47;;;6.19;54.21
21111;BME280;10713;51.912;4.494;2023-02-28T13:12:19;103052.88;;;6.14;53.69
21111;BME280;10713;51.912;4.494;2023-02-28T13:14:46;103042.53;;;6.21;54.18
21111;BME280;10713;51.912;4.494;2023-02-28T13:17:14;103032.97;;;6.28;54.50
21111;BME280;10713;51.912;4.494;2023-02-28T13:19:46;103044.25;;;6.21;53.97
21111;BME280;10713;51.912;4.494;2023-02-28T13:24:59;103038.13;;;6.19;51.28
21111;BME280;10713;51.912;4.494;2023-02-28T13:27:39;103035.69;;;6.32;51.40
21111;BME280;10713;51.912;4.494;2023-02-28T13:38:44;103021.50;;;6.20;50.86
21111;BME280;10713;51.912;4.494;2023-02-28T14:01:07;103017.94;;;6.13;51.30
21111;BME280;10713;51.912;4.494;2023-02-28T14:06:32;103023.25;;;6.19;51.06
21111;BME280;10713;51.912;4.494;2023-02-28T14:08:59;103008.38;;;6.18;51.34
21111;BME280;10713;51.912;4.494;2023-02-28T14:11:33;103005.13;;;6.38;51.26
21111;BME280;10713;51.912;4.494;2023-02-28T14:13:59;103006.69;;;6.23;50.41
21111;BME280;10713;51.912;4.494;2023-02-28T14:16:45;102999.00;;;6.36;50.40
21111;BME280;10713;51.912;4.494;2023-02-28T14:19:21;102986.75;;;6.38;51.10
21111;BME280;10713;51.912;4.494;2023-02-28T14:27:39;102985.75;;;6.25;50.63
21111;BME280;10713;51.912;4.494;2023-02-28T14:33:25;102988.31;;;6.22;49.78
21111;BME280;10713;51.912;4.494;2023-02-28T14:36:06;102992.91;;;6.38;50.85
21111;BME280;10713;51.912;4.494;2023-02-28T14:38:46;102991.41;;;6.60;51.54
21111;BME280;10713;51.912;4.494;2023-02-28T14:43:57;102988.00;;;6.67;51.27
21111;BME280;10713;51.912;4.494;2023-02-28T14:46:26;102990.69;;;6.75;51.16
21111;BME280;10713;51.912;4.494;2023-02-28T14:48:54;102986.44;;;6.86;52.49